createdAt,value
2019-06-27T00:00:17.001Z,33.2
2019-06-27T00:01:19.191Z,33.3
2019-06-27T00:02:21.617Z,33.5
2019-06-27T00:03:24.032Z,33.3
2019-06-27T00:04:26.455Z,33.5
2019-06-27T00:05:28.641Z,33.5
2019-06-27T00:06:31.057Z,33.6
2019-06-27T00:07:33.213Z,33.5
2019-06-27T00:08:35.886Z,33.5
2019-06-27T00:09:38.523Z,33.5
2019-06-27T00:10:40.970Z,33.5
2019-06-27T00:11:42.837Z,33.5
2019-06-27T00:12:45.300Z,33.5
2019-06-27T00:13:47.747Z,33.5
2019-06-27T00:14:50.185Z,33.3
2019-06-27T00:15:52.342Z,33.6
2019-06-27T00:16:54.489Z,33.6
2019-06-27T00:17:56.385Z,33.6
2019-06-27T00:18:58.825Z,33.7
2019-06-27T00:20:00.971Z,33.5
2019-06-27T00:21:03.190Z,33.5
2019-06-27T00:22:05.479Z,33.6
2019-06-27T00:23:07.348Z,33.5
2019-06-27T00:24:09.790Z,33.5
2019-06-27T00:25:11.936Z,33.5
2019-06-27T00:26:14.101Z,33.7
2019-06-27T00:27:16.540Z,33.6
2019-06-27T00:28:18.969Z,33.5
2019-06-27T00:29:21.125Z,33.8
2019-06-27T00:30:23.546Z,33.6
2019-06-27T00:31:25.401Z,33.4
2019-06-27T00:32:27.284Z,33.6
2019-06-27T00:33:29.930Z,33.6
2019-06-27T00:34:32.571Z,33.6
2019-06-27T00:35:34.743Z,33.4
2019-06-27T00:36:37.177Z,33.9
2019-06-27T00:37:39.367Z,33.5
2019-06-27T00:38:41.515Z,33.8
2019-06-27T00:39:43.933Z,33.5
2019-06-27T00:40:45.239Z,33.6
2019-06-27T00:41:47.676Z,33.5
2019-06-27T00:42:50.088Z,33.5
2019-06-27T00:43:52.249Z,33.6
2019-06-27T00:44:54.404Z,33.6
2019-06-27T00:45:56.831Z,33.7
2019-06-27T00:46:59.256Z,33.9
2019-06-27T00:48:00.848Z,33.5
2019-06-27T00:49:03.331Z,33.8
2019-06-27T00:50:05.481Z,33.8
2019-06-27T00:51:07.906Z,33.6
2019-06-27T00:52:10.333Z,33.7
2019-06-27T00:53:12.781Z,33.8
2019-06-27T00:54:15.213Z,33.9
2019-06-27T00:55:17.643Z,33.7
2019-06-27T00:56:20.285Z,33.8
2019-06-27T00:57:22.149Z,33.7
2019-06-27T00:58:24.569Z,33.8
2019-06-27T00:59:26.716Z,33.6
2019-06-27T01:00:29.143Z,33.5
2019-06-27T01:01:31.576Z,33.5
2019-06-27T01:02:33.999Z,33.7
2019-06-27T01:03:36.168Z,33.6
2019-06-27T01:04:38.330Z,33.9
2019-06-27T01:05:40.746Z,33.8
2019-06-27T01:06:42.945Z,33.6
2019-06-27T01:07:45.066Z,33.7
2019-06-27T01:08:47.488Z,34.1
2019-06-27T01:09:49.929Z,33.8
2019-06-27T01:10:52.290Z,33.6
2019-06-27T01:11:54.713Z,33.6
2019-06-27T01:12:57.143Z,33.6
2019-06-27T01:13:59.558Z,34
2019-06-27T01:15:02.048Z,33.6
2019-06-27T01:16:04.318Z,33.7
2019-06-27T01:17:06.755Z,33.8
2019-06-27T01:18:08.897Z,33.7
2019-06-27T01:19:11.038Z,33.8
2019-06-27T01:20:13.204Z,33.8
2019-06-27T01:21:15.336Z,33.7
2019-06-27T01:22:17.224Z,33.5
2019-06-27T01:23:19.633Z,33.7
2019-06-27T01:24:21.762Z,33.7
2019-06-27T01:25:24.200Z,33.4
2019-06-27T01:26:26.376Z,33.7
2019-06-27T01:27:30.156Z,33.7
2019-06-27T01:28:32.466Z,33.6
2019-06-27T01:29:35.021Z,33.8
2019-06-27T01:30:37.668Z,33.6
2019-06-27T01:31:39.879Z,33.7
2019-06-27T01:32:42.011Z,33.8
2019-06-27T01:33:44.137Z,33.9
2019-06-27T01:34:46.289Z,33.7
2019-06-27T01:35:48.935Z,33.8
2019-06-27T01:36:51.372Z,33.8
2019-06-27T01:37:53.856Z,33.7
2019-06-27T01:38:56.035Z,33.7
2019-06-27T01:39:58.441Z,33.8
2019-06-27T01:41:00.599Z,33.7
2019-06-27T01:42:02.473Z,33.7
2019-06-27T01:43:04.905Z,33.7
2019-06-27T01:44:07.047Z,33.6
2019-06-27T01:45:08.929Z,33.7
2019-06-27T01:46:11.362Z,33.8
2019-06-27T01:47:13.554Z,33.8
2019-06-27T01:48:16.183Z,33.7
2019-06-27T01:49:18.618Z,33.7
2019-06-27T01:50:20.807Z,33.7
2019-06-27T01:51:23.256Z,33.9
2019-06-27T01:52:25.418Z,33.8
2019-06-27T01:53:27.831Z,33.8
2019-06-27T01:54:30.269Z,33.8
2019-06-27T01:55:32.699Z,33.7
2019-06-27T01:56:33.993Z,33.9
2019-06-27T01:57:45.884Z,33.7
2019-06-27T01:58:41.051Z,33.7
2019-06-27T01:59:43.471Z,34
2019-06-27T02:00:45.649Z,34.1
2019-06-27T02:01:48.060Z,33.9
2019-06-27T02:02:50.258Z,33.7
2019-06-27T02:03:52.747Z,33.7
2019-06-27T02:04:54.909Z,33.7
2019-06-27T02:05:57.347Z,33.8
2019-06-27T02:06:59.488Z,33.7
2019-06-27T02:08:01.920Z,33.9
2019-06-27T02:09:04.358Z,33.7
2019-06-27T02:10:06.510Z,33.8
2019-06-27T02:11:09.056Z,33.9
2019-06-27T02:12:11.480Z,33.7
2019-06-27T02:13:13.646Z,33.6
2019-06-27T02:14:15.540Z,33.8
2019-06-27T02:15:17.410Z,33.6
2019-06-27T02:16:23.357Z,34
2019-06-27T02:17:25.502Z,33.7
2019-06-27T02:18:28.161Z,33.6
2019-06-27T02:19:30.801Z,33.8
2019-06-27T02:20:33.261Z,33.7
2019-06-27T02:21:35.458Z,33.9
2019-06-27T02:22:37.725Z,33.8
2019-06-27T02:23:40.161Z,33.9
2019-06-27T02:24:42.292Z,33.8
2019-06-27T02:25:44.432Z,33.7
2019-06-27T02:26:46.874Z,34
2019-06-27T02:28:02.496Z,33.9
2019-06-27T02:28:54.233Z,33.8
2019-06-27T02:29:56.374Z,34
2019-06-27T02:30:58.271Z,33.6
2019-06-27T02:32:00.400Z,33.7
2019-06-27T02:33:02.834Z,33.8
2019-06-27T02:34:06.681Z,33.9
2019-06-27T02:35:09.635Z,33.7
2019-06-27T02:36:12.068Z,33.9
2019-06-27T02:37:14.485Z,33.7
2019-06-27T02:38:16.941Z,33.6
2019-06-27T02:39:19.396Z,33.7
2019-06-27T02:40:21.838Z,33.6
2019-06-27T02:41:24.273Z,33.9
2019-06-27T02:42:26.433Z,33.8
2019-06-27T02:43:28.857Z,33.9
2019-06-27T02:44:31.097Z,34
2019-06-27T02:45:33.518Z,33.6
2019-06-27T02:46:35.964Z,33.6
2019-06-27T02:47:38.092Z,33.8
2019-06-27T02:48:39.972Z,33.8
2019-06-27T02:49:42.637Z,33.7
2019-06-27T02:50:44.775Z,33.7
2019-06-27T02:51:47.189Z,33.6
2019-06-27T02:52:49.349Z,33.8
2019-06-27T02:53:51.801Z,33.7
2019-06-27T02:54:53.396Z,33.6
2019-06-27T02:55:55.552Z,33.7
2019-06-27T02:56:58.243Z,33.7
2019-06-27T02:58:00.664Z,33.5
2019-06-27T02:59:07.303Z,33.8
2019-06-27T03:00:09.386Z,33.7
2019-06-27T03:01:11.619Z,33.8
2019-06-27T03:02:13.515Z,33.5
2019-06-27T03:03:15.672Z,33.7
2019-06-27T03:04:17.817Z,33.6
2019-06-27T03:05:20.266Z,33.7
2019-06-27T03:06:22.413Z,33.4
2019-06-27T03:07:24.288Z,33.4
2019-06-27T03:08:26.922Z,33.8
2019-06-27T03:09:29.357Z,33.6
2019-06-27T03:10:31.513Z,33.6
2019-06-27T03:11:33.733Z,33.5
2019-06-27T03:12:36.148Z,33.7
2019-06-27T03:13:38.419Z,33.5
2019-06-27T03:14:40.679Z,33.4
2019-06-27T03:15:42.857Z,33.5
2019-06-27T03:16:45.287Z,33.5
2019-06-27T03:17:47.714Z,33.4
2019-06-27T03:18:50.143Z,33.4
2019-06-27T03:19:52.556Z,33.2
2019-06-27T03:20:54.742Z,33.5
2019-06-27T03:21:57.208Z,33.7
2019-06-27T03:22:59.636Z,33.4
2019-06-27T03:24:02.096Z,33.4
2019-06-27T03:25:03.974Z,33.3
2019-06-27T03:26:06.169Z,33.4
2019-06-27T03:27:08.353Z,33.4
2019-06-27T03:28:10.822Z,33.1
2019-06-27T03:29:13.246Z,33.4
2019-06-27T03:30:20.294Z,33.5
2019-06-27T03:31:22.557Z,33.5
2019-06-27T03:32:25.002Z,33.5
2019-06-27T03:33:27.262Z,33.2
2019-06-27T03:34:29.447Z,33.5
2019-06-27T03:35:31.590Z,33.2
2019-06-27T03:36:34.059Z,33.4
2019-06-27T03:37:36.521Z,33.3
2019-06-27T03:38:38.992Z,33.4
2019-06-27T03:39:41.443Z,33.5
2019-06-27T03:40:44.109Z,33.4
2019-06-27T03:41:46.532Z,33.2
2019-06-27T03:42:49.031Z,33.4
2019-06-27T03:43:51.450Z,33.3
2019-06-27T03:44:53.911Z,33.4
2019-06-27T03:45:56.338Z,33.5
2019-06-27T03:46:58.509Z,33.5
2019-06-27T03:48:00.956Z,33.4
2019-06-27T03:49:03.069Z,33.4
2019-06-27T03:50:05.238Z,33.4
2019-06-27T03:51:07.129Z,33.3
2019-06-27T03:52:09.575Z,33.2
2019-06-27T03:53:12.006Z,33.4
2019-06-27T03:54:14.203Z,33.6
2019-06-27T03:55:16.072Z,33.3
2019-06-27T03:56:18.334Z,33.2
2019-06-27T03:57:20.490Z,33.5
2019-06-27T03:58:22.944Z,33.2
2019-06-27T03:59:25.576Z,33.1
2019-06-27T04:00:27.736Z,33.1
2019-06-27T04:01:30.113Z,33.5
2019-06-27T04:02:32.566Z,33.2
2019-06-27T04:03:34.981Z,33.5
2019-06-27T04:04:37.640Z,33.4
2019-06-27T04:05:40.084Z,33.3
2019-06-27T04:06:42.525Z,33.2
2019-06-27T04:07:44.701Z,33.5
2019-06-27T04:08:47.151Z,33
2019-06-27T04:09:49.304Z,33.2
2019-06-27T04:10:51.965Z,33.2
2019-06-27T04:11:54.429Z,33.4
2019-06-27T04:12:56.916Z,33.2
2019-06-27T04:13:59.348Z,33.1
2019-06-27T04:15:01.845Z,33.3
2019-06-27T04:16:04.370Z,33.3
2019-06-27T04:17:06.856Z,33.2
2019-06-27T04:18:09.265Z,33.5
2019-06-27T04:19:11.695Z,33.3
2019-06-27T04:20:13.589Z,33.3
2019-06-27T04:21:16.564Z,33.3
2019-06-27T04:22:19.021Z,33.4
2019-06-27T04:23:21.198Z,33.3
2019-06-27T04:24:23.559Z,33.3
2019-06-27T04:25:26.024Z,33.5
2019-06-27T04:26:28.476Z,33.3
2019-06-27T04:27:31.209Z,33.1
2019-06-27T04:28:33.645Z,33.2
2019-06-27T04:29:35.810Z,33.2
2019-06-27T04:30:38.280Z,33.1
2019-06-27T04:31:40.726Z,33.1
2019-06-27T04:32:42.288Z,33.3
2019-06-27T04:33:44.711Z,33.2
2019-06-27T04:34:47.137Z,33.2
2019-06-27T04:35:49.326Z,33.4
2019-06-27T04:36:51.512Z,33.2
2019-06-27T04:37:54.288Z,33.1
2019-06-27T04:38:56.419Z,33.2
2019-06-27T04:39:58.852Z,33.5
2019-06-27T04:41:01.291Z,33.4
2019-06-27T04:42:03.740Z,33.1
2019-06-27T04:43:06.525Z,33.2
2019-06-27T04:44:09.066Z,33.3
2019-06-27T04:45:11.210Z,33.2
2019-06-27T04:46:13.712Z,33.1
2019-06-27T04:47:15.902Z,33.3
2019-06-27T04:48:18.034Z,33.3
2019-06-27T04:49:20.229Z,33
2019-06-27T04:50:22.650Z,33.5
2019-06-27T04:51:24.797Z,33.2
2019-06-27T04:52:27.649Z,33.1
2019-06-27T04:53:30.093Z,33.2
2019-06-27T04:54:32.605Z,33.1
2019-06-27T04:55:34.760Z,32.9
2019-06-27T04:56:37.346Z,33.6
2019-06-27T04:57:39.799Z,33
2019-06-27T04:58:42.249Z,33.1
2019-06-27T04:59:53.000Z,33.2
2019-06-27T05:00:49.854Z,33.3
2019-06-27T05:01:52.010Z,33.2
2019-06-27T05:02:54.435Z,33
2019-06-27T05:03:57.446Z,33.3
2019-06-27T05:05:00.477Z,33.4
2019-06-27T05:06:03.354Z,33.3
2019-06-27T05:07:06.123Z,33.3
2019-06-27T05:08:08.313Z,33.1
2019-06-27T05:09:14.720Z,33.6
2019-06-27T05:10:16.898Z,33.3
2019-06-27T05:11:19.351Z,33.3
2019-06-27T05:12:21.471Z,33.2
2019-06-27T05:13:23.911Z,33.3
2019-06-27T05:14:26.364Z,33.1
2019-06-27T05:15:28.787Z,33.5
2019-06-27T05:16:31.217Z,33.1
2019-06-27T05:17:33.637Z,33.1
2019-06-27T05:18:35.565Z,33.5
2019-06-27T05:19:37.974Z,33.3
2019-06-27T05:20:40.416Z,33.3
2019-06-27T05:21:42.817Z,33.4
2019-06-27T05:22:45.239Z,33.3
2019-06-27T05:23:47.093Z,33.2
2019-06-27T05:24:49.522Z,33.2
2019-06-27T05:25:51.958Z,33
2019-06-27T05:26:54.075Z,33.3
2019-06-27T05:27:56.253Z,33.2
2019-06-27T05:28:58.692Z,33.3
2019-06-27T05:30:09.035Z,33.1
2019-06-27T05:31:06.134Z,33.1
2019-06-27T05:32:08.576Z,33.5
2019-06-27T05:33:11.149Z,33.2
2019-06-27T05:34:13.803Z,33.1
2019-06-27T05:35:15.965Z,33.3
2019-06-27T05:36:17.949Z,33.5
2019-06-27T05:37:19.818Z,33.4
2019-06-27T05:38:22.019Z,33.3
2019-06-27T05:39:24.450Z,33.2
2019-06-27T05:40:26.576Z,33.3
2019-06-27T05:41:28.458Z,33
2019-06-27T05:42:30.952Z,33.1
2019-06-27T05:43:33.537Z,33.3
2019-06-27T05:44:35.954Z,33.2
2019-06-27T05:45:38.119Z,33.1
2019-06-27T05:46:40.802Z,33.4
2019-06-27T05:47:43.225Z,33.5
2019-06-27T05:48:45.668Z,33
2019-06-27T05:49:48.080Z,33.2
2019-06-27T05:50:50.726Z,33.3
2019-06-27T05:51:53.365Z,33.1
2019-06-27T05:52:55.859Z,33.4
2019-06-27T05:53:58.500Z,32.9
2019-06-27T05:55:01.126Z,33.4
2019-06-27T05:56:03.803Z,33
2019-06-27T05:57:06.224Z,33.3
2019-06-27T05:58:08.860Z,33.2
2019-06-27T05:59:11.193Z,33.3
2019-06-27T06:00:27.147Z,33.3
2019-06-27T06:01:18.313Z,33.1
2019-06-27T06:02:20.464Z,33.3
2019-06-27T06:03:23.128Z,33.4
2019-06-27T06:04:25.541Z,33.3
2019-06-27T06:05:27.984Z,33.1
2019-06-27T06:06:30.430Z,33.1
2019-06-27T06:07:32.587Z,33.2
2019-06-27T06:08:34.715Z,33
2019-06-27T06:09:37.133Z,33.3
2019-06-27T06:10:39.576Z,33.2
2019-06-27T06:11:41.996Z,33.5
2019-06-27T06:12:44.427Z,33.3
2019-06-27T06:13:46.974Z,33.5
2019-06-27T06:14:49.596Z,33.5
2019-06-27T06:15:51.764Z,33.4
2019-06-27T06:16:54.382Z,33.2
2019-06-27T06:17:56.608Z,33.2
2019-06-27T06:18:59.023Z,33.1
2019-06-27T06:20:01.466Z,33
2019-06-27T06:21:03.848Z,33.4
2019-06-27T06:22:06.274Z,33.2
2019-06-27T06:23:08.721Z,33.3
2019-06-27T06:24:11.135Z,33.3
2019-06-27T06:25:13.601Z,33.3
2019-06-27T06:26:16.039Z,33.3
2019-06-27T06:27:18.188Z,33.5
2019-06-27T06:28:20.452Z,33
2019-06-27T06:29:22.870Z,33.1
2019-06-27T06:30:25.043Z,32.9
2019-06-27T06:31:31.495Z,33.3
2019-06-27T06:32:33.655Z,33.3
2019-06-27T06:33:36.008Z,33.5
2019-06-27T06:34:38.454Z,33.7
2019-06-27T06:35:40.810Z,33.3
2019-06-27T06:36:42.972Z,33.1
2019-06-27T06:37:45.454Z,33.2
2019-06-27T06:38:47.878Z,33.2
2019-06-27T06:39:50.299Z,33.3
2019-06-27T06:40:52.724Z,33.1
2019-06-27T06:41:55.137Z,33.3
2019-06-27T06:43:00.388Z,33.2
2019-06-27T06:44:02.553Z,33.1
2019-06-27T06:45:04.965Z,33.3
2019-06-27T06:46:07.405Z,33.1
2019-06-27T06:47:09.906Z,33.5
2019-06-27T06:48:12.562Z,33
2019-06-27T06:49:15.213Z,33.1
2019-06-27T06:50:17.888Z,33.3
2019-06-27T06:51:24.523Z,33.2
2019-06-27T06:52:27.177Z,32.9
2019-06-27T06:53:29.605Z,33.2
2019-06-27T06:54:32.135Z,33.3
2019-06-27T06:55:34.652Z,32.8
2019-06-27T06:56:37.060Z,33
2019-06-27T06:57:39.508Z,32.9
2019-06-27T06:58:41.964Z,32.9
2019-06-27T06:59:44.097Z,33.1
2019-06-27T07:01:00.144Z,33.1
2019-06-27T07:01:51.574Z,33
2019-06-27T07:02:54.104Z,33.4
2019-06-27T07:03:56.732Z,33.1
2019-06-27T07:04:59.175Z,33.1
2019-06-27T07:06:01.830Z,33.3
2019-06-27T07:07:04.293Z,33.2
2019-06-27T07:08:06.474Z,33.1
2019-06-27T07:09:08.902Z,32.9
2019-06-27T07:10:11.312Z,33.1
2019-06-27T07:11:13.741Z,33.3
2019-06-27T07:12:15.610Z,33.2
2019-06-27T07:13:18.116Z,33.3
2019-06-27T07:14:20.263Z,33.3
2019-06-27T07:15:22.678Z,33.3
2019-06-27T07:16:25.109Z,33.2
2019-06-27T07:17:27.528Z,33.1
2019-06-27T07:18:29.702Z,33.3
2019-06-27T07:19:32.221Z,33.2
2019-06-27T07:20:34.377Z,33.2
2019-06-27T07:21:36.808Z,33.3
2019-06-27T07:22:38.928Z,33.3
2019-06-27T07:23:41.376Z,33.2
2019-06-27T07:24:43.567Z,33.4
2019-06-27T07:25:45.995Z,33.1
2019-06-27T07:26:48.434Z,33.1
2019-06-27T07:27:50.873Z,33.2
2019-06-27T07:28:53.417Z,33.2
2019-06-27T07:29:55.874Z,33.2
2019-06-27T07:30:58.391Z,33.3
2019-06-27T07:32:05.292Z,33.3
2019-06-27T07:33:10.148Z,33.4
2019-06-27T07:34:12.413Z,33.3
2019-06-27T07:35:14.844Z,33.4
2019-06-27T07:36:16.798Z,33.3
2019-06-27T07:37:19.533Z,33.1
2019-06-27T07:38:21.892Z,33.3
2019-06-27T07:39:24.291Z,33.2
2019-06-27T07:40:26.434Z,33.4
2019-06-27T07:41:28.578Z,33
2019-06-27T07:42:31.013Z,33.2
2019-06-27T07:43:33.457Z,33.2
2019-06-27T07:44:35.615Z,33.2
2019-06-27T07:45:38.066Z,33.1
2019-06-27T07:46:40.293Z,33.3
2019-06-27T07:47:43.147Z,33.1
2019-06-27T07:48:45.561Z,33.1
2019-06-27T07:49:47.996Z,33.1
2019-06-27T07:50:51.025Z,33.4
2019-06-27T07:51:52.931Z,33.3
2019-06-27T07:52:55.582Z,33.1
2019-06-27T07:53:58.052Z,33.2
2019-06-27T07:55:00.476Z,33
2019-06-27T07:56:02.915Z,33.3
2019-06-27T07:57:05.514Z,33.5
2019-06-27T07:58:07.932Z,32.9
2019-06-27T07:59:09.810Z,33.2
2019-06-27T08:00:12.230Z,33.3
2019-06-27T08:01:14.700Z,33.3
2019-06-27T08:02:21.868Z,33.2
2019-06-27T08:03:24.295Z,33.2
2019-06-27T08:04:26.722Z,33.1
2019-06-27T08:05:29.141Z,33.2
2019-06-27T08:06:31.484Z,33.3
2019-06-27T08:07:33.619Z,33.3
2019-06-27T08:08:35.761Z,33.4
2019-06-27T08:09:37.921Z,33.4
2019-06-27T08:10:40.343Z,33.4
2019-06-27T08:11:42.833Z,33.3
2019-06-27T08:12:44.977Z,33
2019-06-27T08:13:47.405Z,33.3
2019-06-27T08:14:49.551Z,33
2019-06-27T08:15:52.022Z,33.4
2019-06-27T08:16:54.455Z,33.1
2019-06-27T08:17:57.148Z,33.2
2019-06-27T08:18:59.585Z,33.1
2019-06-27T08:20:02.062Z,33.4
2019-06-27T08:21:04.605Z,33.3
2019-06-27T08:22:07.031Z,33.2
2019-06-27T08:23:09.479Z,33.3
2019-06-27T08:24:11.921Z,33.2
2019-06-27T08:25:14.062Z,33.2
2019-06-27T08:26:16.229Z,33.3
2019-06-27T08:27:18.388Z,33.2
2019-06-27T08:28:20.567Z,33.2
2019-06-27T08:29:22.715Z,33.4
2019-06-27T08:30:25.142Z,33.2
2019-06-27T08:31:27.626Z,33.6
2019-06-27T08:32:30.058Z,33.1
2019-06-27T08:33:32.499Z,33.4
2019-06-27T08:34:34.657Z,33.6
2019-06-27T08:35:37.054Z,33.2
2019-06-27T08:36:39.478Z,33.6
2019-06-27T08:37:41.691Z,33.2
2019-06-27T08:38:44.594Z,33.4
2019-06-27T08:39:47.028Z,33.3
2019-06-27T08:40:49.492Z,33.1
2019-06-27T08:41:51.374Z,33.3
2019-06-27T08:42:53.530Z,33.2
2019-06-27T08:43:55.983Z,33.3
2019-06-27T08:44:58.476Z,33.3
2019-06-27T08:46:00.911Z,33.3
2019-06-27T08:47:03.344Z,33.1
2019-06-27T08:48:05.787Z,33.2
2019-06-27T08:49:08.223Z,33.2
2019-06-27T08:50:10.903Z,33.2
2019-06-27T08:51:13.369Z,33.4
2019-06-27T08:52:15.814Z,33.2
2019-06-27T08:53:18.248Z,33.3
2019-06-27T08:54:20.147Z,33.3
2019-06-27T08:55:22.615Z,33.2
2019-06-27T08:56:25.105Z,33.5
2019-06-27T08:57:27.534Z,33.4
2019-06-27T08:58:30.239Z,33.6
2019-06-27T08:59:32.689Z,33.2
2019-06-27T09:00:35.147Z,33.1
2019-06-27T09:01:37.310Z,33.5
2019-06-27T09:02:39.735Z,33.7
2019-06-27T09:03:42.277Z,33.2
2019-06-27T09:04:44.423Z,33.3
2019-06-27T09:05:46.865Z,33.3
2019-06-27T09:06:49.272Z,33.2
2019-06-27T09:07:51.392Z,33.5
2019-06-27T09:08:53.551Z,33.4
2019-06-27T09:09:56.176Z,33.3
2019-06-27T09:10:58.614Z,33.3
2019-06-27T09:12:01.061Z,33.1
2019-06-27T09:13:03.208Z,33.3
2019-06-27T09:14:05.654Z,33.4
2019-06-27T09:15:07.846Z,33.7
2019-06-27T09:16:10.269Z,33.4
2019-06-27T09:17:12.691Z,33.6
2019-06-27T09:18:14.877Z,33.5
2019-06-27T09:19:17.313Z,33.3
2019-06-27T09:20:19.756Z,33.3
2019-06-27T09:21:22.216Z,33.1
2019-06-27T09:22:24.617Z,33.5
2019-06-27T09:23:27.219Z,33.4
2019-06-27T09:24:29.413Z,33.3
2019-06-27T09:25:31.908Z,33.4
2019-06-27T09:26:34.865Z,33.3
2019-06-27T09:27:37.326Z,33.1
2019-06-27T09:28:39.751Z,33.3
2019-06-27T09:29:42.281Z,33.3
2019-06-27T09:30:44.863Z,33.3
2019-06-27T09:31:47.294Z,33.5
2019-06-27T09:32:49.439Z,33.4
2019-06-27T09:33:51.867Z,33.5
2019-06-27T09:34:54.019Z,33.5
2019-06-27T09:35:56.209Z,33.3
2019-06-27T09:36:58.687Z,33.2
2019-06-27T09:38:01.394Z,33.3
2019-06-27T09:39:03.653Z,33.3
2019-06-27T09:40:06.084Z,33.4
2019-06-27T09:41:08.523Z,33.5
2019-06-27T09:42:10.693Z,33.2
2019-06-27T09:43:13.132Z,33.2
2019-06-27T09:44:15.601Z,33.3
2019-06-27T09:45:18.227Z,33.3
2019-06-27T09:46:20.645Z,33.3
2019-06-27T09:47:22.791Z,33.2
2019-06-27T09:48:25.219Z,33.2
2019-06-27T09:49:27.653Z,33.3
2019-06-27T09:50:30.074Z,33.4
2019-06-27T09:51:32.521Z,33.2
2019-06-27T09:52:34.955Z,33.1
2019-06-27T09:53:37.382Z,33.3
2019-06-27T09:54:40.050Z,33.5
2019-06-27T09:55:42.207Z,33.3
2019-06-27T09:56:48.643Z,33.4
2019-06-27T09:57:50.857Z,33.5
2019-06-27T09:58:53.325Z,33.4
2019-06-27T09:59:55.784Z,33.1
2019-06-27T10:00:58.443Z,33.3
2019-06-27T10:02:01.146Z,33.5
2019-06-27T10:03:03.599Z,33.4
2019-06-27T10:04:06.004Z,33.1
2019-06-27T10:05:08.436Z,33.4
2019-06-27T10:06:10.860Z,33.4
2019-06-27T10:07:12.986Z,33.3
2019-06-27T10:08:15.496Z,33.3
2019-06-27T10:09:17.911Z,33.2
2019-06-27T10:10:20.341Z,33.2
2019-06-27T10:11:22.513Z,33.5
2019-06-27T10:12:37.917Z,33.3
2019-06-27T10:13:29.943Z,33.3
2019-06-27T10:14:32.383Z,33.1
2019-06-27T10:15:34.813Z,33.4
2019-06-27T10:16:37.251Z,33.1
2019-06-27T10:17:39.697Z,33.5
2019-06-27T10:18:42.129Z,33.5
2019-06-27T10:19:44.564Z,33.4
2019-06-27T10:20:46.985Z,33.5
2019-06-27T10:21:49.401Z,33.4
2019-06-27T10:22:52.106Z,33.7
2019-06-27T10:23:54.541Z,33.2
2019-06-27T10:24:56.953Z,33.5
2019-06-27T10:25:59.303Z,33.1
2019-06-27T10:27:02.433Z,33.4
2019-06-27T10:28:04.933Z,33.4
2019-06-27T10:29:07.347Z,33.5
2019-06-27T10:30:09.549Z,33.4
2019-06-27T10:31:12.203Z,33.3
2019-06-27T10:32:14.381Z,33.7
2019-06-27T10:33:16.797Z,33.5
2019-06-27T10:34:19.221Z,33.5
2019-06-27T10:35:21.659Z,33.5
2019-06-27T10:36:24.082Z,33.5
2019-06-27T10:37:26.529Z,33.5
2019-06-27T10:38:28.693Z,33.3
2019-06-27T10:39:31.254Z,33.4
2019-06-27T10:40:33.833Z,33.5
2019-06-27T10:41:36.473Z,33.6
2019-06-27T10:42:38.927Z,33.5
2019-06-27T10:43:41.402Z,33.5
2019-06-27T10:44:43.932Z,33.5
2019-06-27T10:45:46.386Z,33.4
2019-06-27T10:46:48.894Z,33.2
2019-06-27T10:47:51.321Z,33.4
2019-06-27T10:48:53.785Z,33.4
2019-06-27T10:49:56.207Z,33.4
2019-06-27T10:50:58.650Z,33.4
2019-06-27T10:52:01.070Z,33.4
2019-06-27T10:53:03.440Z,33.4
2019-06-27T10:54:06.051Z,33.5
2019-06-27T10:55:08.680Z,33.5
2019-06-27T10:56:11.112Z,33.4
2019-06-27T10:57:12.980Z,33.4
2019-06-27T10:58:15.135Z,33.4
2019-06-27T10:59:17.459Z,33.5
2019-06-27T11:00:20.138Z,33.2
2019-06-27T11:01:22.690Z,33.4
2019-06-27T11:02:25.463Z,33.3
2019-06-27T11:03:28.153Z,33.4
2019-06-27T11:04:30.577Z,33.3
2019-06-27T11:05:33.179Z,33.4
2019-06-27T11:06:35.595Z,33.7
2019-06-27T11:07:40.692Z,33.4
2019-06-27T11:08:43.012Z,33.4
2019-06-27T11:09:46.234Z,33.4
2019-06-27T11:10:51.696Z,33.4
2019-06-27T11:11:54.111Z,33.3
2019-06-27T11:12:59.257Z,33.5
2019-06-27T11:14:01.739Z,33.3
2019-06-27T11:15:04.163Z,33.5
2019-06-27T11:16:07.204Z,33.4
2019-06-27T11:17:09.622Z,33.5
2019-06-27T11:18:12.043Z,33.4
2019-06-27T11:19:14.448Z,33.4
2019-06-27T11:20:16.908Z,33.4
2019-06-27T11:21:19.387Z,33.6
2019-06-27T11:22:21.808Z,33.2
2019-06-27T11:23:23.998Z,33.4
2019-06-27T11:24:26.623Z,33.4
2019-06-27T11:25:28.786Z,33.3
2019-06-27T11:26:31.245Z,33.5
2019-06-27T11:27:33.387Z,33.5
2019-06-27T11:28:35.824Z,33.6
2019-06-27T11:29:38.337Z,33.2
2019-06-27T11:30:40.551Z,33.5
2019-06-27T11:31:42.974Z,33.5
2019-06-27T11:32:45.392Z,33.3
2019-06-27T11:33:47.818Z,33.3
2019-06-27T11:34:50.240Z,33.4
2019-06-27T11:35:52.663Z,33.4
2019-06-27T11:36:54.828Z,33.5
2019-06-27T11:37:57.260Z,33.2
2019-06-27T11:38:59.697Z,33.3
2019-06-27T11:40:02.738Z,33.6
2019-06-27T11:41:04.870Z,33.6
2019-06-27T11:42:07.846Z,33.7
2019-06-27T11:43:11.034Z,33.3
2019-06-27T11:44:13.617Z,33.3
2019-06-27T11:45:16.450Z,33.4
2019-06-27T11:46:19.068Z,33.5
2019-06-27T11:47:21.213Z,33.4
2019-06-27T11:48:23.837Z,33.4
2019-06-27T11:49:25.970Z,33.2
2019-06-27T11:50:28.146Z,33.4
2019-06-27T11:51:30.562Z,33.4
2019-06-27T11:52:33.014Z,33.3
2019-06-27T11:53:35.652Z,33.4
2019-06-27T11:54:38.134Z,33.2
2019-06-27T11:55:40.699Z,33.2
2019-06-27T11:56:43.135Z,33.1
2019-06-27T11:57:45.578Z,33.2
2019-06-27T11:58:47.973Z,33.4
2019-06-27T11:59:50.350Z,33.2
2019-06-27T12:00:52.759Z,33.3
2019-06-27T12:01:55.358Z,33.3
2019-06-27T12:02:57.980Z,33.4
2019-06-27T12:04:00.134Z,33.4
2019-06-27T12:05:02.706Z,33.6
2019-06-27T12:06:05.327Z,33.3
2019-06-27T12:07:07.790Z,33.2
2019-06-27T12:08:11.084Z,33.4
2019-06-27T12:09:13.568Z,33.4
2019-06-27T12:10:15.992Z,33.5
2019-06-27T12:11:18.524Z,33.6
2019-06-27T12:12:20.952Z,33.3
2019-06-27T12:13:23.407Z,33.1
2019-06-27T12:14:25.756Z,33.4
2019-06-27T12:15:27.949Z,33.3
2019-06-27T12:16:30.472Z,33.3
2019-06-27T12:17:32.633Z,33.3
2019-06-27T12:18:35.468Z,33.2
2019-06-27T12:19:37.898Z,33.3
2019-06-27T12:20:40.336Z,33.4
2019-06-27T12:21:42.756Z,33.4
2019-06-27T12:22:45.166Z,33.2
2019-06-27T12:23:47.726Z,33.4
2019-06-27T12:24:49.898Z,33.3
2019-06-27T12:25:52.535Z,33.4
2019-06-27T12:26:55.054Z,33.3
2019-06-27T12:27:57.263Z,33.3
2019-06-27T12:28:59.414Z,33.4
2019-06-27T12:30:01.846Z,33.2
2019-06-27T12:31:19.218Z,33.3
2019-06-27T12:32:09.316Z,33.2
2019-06-27T12:33:11.834Z,33.1
2019-06-27T12:34:14.278Z,33.5
2019-06-27T12:35:16.743Z,33
2019-06-27T12:36:18.898Z,33.2
2019-06-27T12:37:21.371Z,33.3
2019-06-27T12:38:23.513Z,33.3
2019-06-27T12:39:25.378Z,33.7
2019-06-27T12:40:27.765Z,33.2
2019-06-27T12:41:29.904Z,33.3
2019-06-27T12:42:33.007Z,33.4
2019-06-27T12:43:35.720Z,33.5
2019-06-27T12:44:38.684Z,33.3
2019-06-27T12:45:41.497Z,33
2019-06-27T12:46:43.909Z,33.3
2019-06-27T12:47:46.365Z,33.3
2019-06-27T12:48:49.022Z,33.3
2019-06-27T12:50:01.950Z,33.3
2019-06-27T12:50:56.453Z,33.3
2019-06-27T12:51:58.926Z,33.3
2019-06-27T12:53:01.393Z,33.3
2019-06-27T12:54:03.818Z,33.5
2019-06-27T12:55:05.995Z,33.4
2019-06-27T12:56:08.417Z,33.4
2019-06-27T12:57:10.819Z,33
2019-06-27T12:58:12.993Z,33.1
2019-06-27T12:59:15.424Z,33.3
2019-06-27T13:00:17.822Z,33.4
2019-06-27T13:01:20.326Z,33.4
2019-06-27T13:02:22.896Z,33.1
2019-06-27T13:03:25.171Z,33.2
2019-06-27T13:04:27.797Z,33.4
2019-06-27T13:05:30.280Z,33.4
2019-06-27T13:06:32.477Z,33.3
2019-06-27T13:07:34.932Z,33.6
2019-06-27T13:08:37.382Z,33.5
2019-06-27T13:09:39.966Z,33.4
2019-06-27T13:10:42.122Z,33.2
2019-06-27T13:11:44.591Z,33.4
2019-06-27T13:12:47.064Z,33.4
2019-06-27T13:13:49.491Z,33.3
2019-06-27T13:14:51.933Z,33.4
2019-06-27T13:15:54.360Z,33.3
2019-06-27T13:16:56.544Z,33.5
2019-06-27T13:17:59.198Z,33.4
2019-06-27T13:19:01.659Z,33.3
2019-06-27T13:20:04.069Z,33.5
2019-06-27T13:21:06.506Z,33.4
2019-06-27T13:22:08.933Z,33.5
2019-06-27T13:23:11.359Z,33.5
2019-06-27T13:24:13.490Z,33.5
2019-06-27T13:26:36.040Z,33.7
2019-06-27T13:27:38.377Z,33.5
2019-06-27T13:28:40.545Z,33.2
2019-06-27T13:29:42.947Z,33.5
2019-06-27T13:30:45.653Z,33.6
2019-06-27T13:31:48.073Z,33.4
2019-06-27T13:32:51.110Z,33.5
2019-06-27T13:33:53.730Z,33.5
2019-06-27T13:34:55.774Z,33.4
2019-06-27T13:35:58.263Z,33.5
2019-06-27T13:37:00.736Z,33.5
2019-06-27T13:38:02.905Z,33.5
2019-06-27T13:39:06.472Z,33.3
2019-06-27T13:40:09.026Z,33.6
2019-06-27T13:41:11.465Z,33.4
2019-06-27T13:42:13.890Z,33.4
2019-06-27T13:43:16.058Z,33.4
2019-06-27T13:44:18.183Z,33.4
2019-06-27T13:45:20.525Z,33.5
2019-06-27T13:46:27.438Z,33.5
2019-06-27T13:47:29.862Z,33.6
2019-06-27T13:48:32.691Z,33.5
2019-06-27T13:49:35.112Z,33.5
2019-06-27T13:50:37.035Z,33.5
2019-06-27T13:51:39.840Z,33.6
2019-06-27T13:52:42.798Z,33.6
2019-06-27T13:53:45.149Z,33.6
2019-06-27T13:54:47.801Z,33.3